Terminal Aerodrome Forecast
Issued by NWS

Home | Current Version | Previous Version | Text Only | Print | Product List | Glossary On
Versions: 1 2 3 4 5 6 7 8 9 10 11 12 13 14
000
FTUS44 KHGX 181123
TAFLBX
TAF
KLBX 181123Z 1812/1912 18004KT P6SM SKC
     FM181500 21009KT P6SM SCT035
     FM190000 17009KT P6SM FEW250
     FM190200 18002KT P6SM SKC=

USA.gov is the U.S. government's official web portal to all federal, state and local government web resources and services.